Elmhurst, New York
Current Conditions -  °F | °C
As of 10:51 PM on Tuesday 21 Oct 2014 (Local Time) from KLGA Reporting Station
Broken Clouds Broken Clouds  
Wind Chill: 59°   Ceiling: 20000
Heat Index: 59°   Visibility: 10mi
Dew Point: 53°   Wind: 12mph
Humidity: 81%   Direction: 50°NE
Pressure: 29.9"   Gusts: NA
Location:  40.73°N, 73.86°W
Report Text: KLGA 220251Z 05010KT 10SM FEW090 BKN200 15/12 A2990 RMK AO2 SLP125 T01500117 51011
Loading
Personal Weather Stations






























Interactive Weather Map
Tropical Storm Tracking
New forecast layout! Learn more

10-Day Weather Forecast

Advertisements
Track Severe Weather on mobile